JST633 YBBN-YMAV
Flight info
| Callsign | JST633 |
|---|---|
| Flight time | 2h 5m |
| Altitude | 36000 |
| Route | BN H91 SANEG Q35 DORSU H119 ML W15 AV |
| Aircraft | A320/M-SDE3FGHIRWY/LB1 |
Departure
| Time | 2026-04-25 14:24 |
|---|---|
| Airport | Brisbane International Airport (YBBN) |
Arrival
| Time | 2026-04-25 16:30 |
|---|---|
| Airport | Melbourne Avalon International Airport (YMAV) |
| Time | Latitude | Longitude | Altitude | Speed | Heading |
|---|---|---|---|---|---|
| 2026-04-25 13:44 | -27.38647 | 153.12238 | 21 ft | 0 kts | 307° |
| 2026-04-25 14:11 | -27.38657 | 153.12256 | 23 ft | 4 kts | 292° |
| 2026-04-25 14:12 | -27.38661 | 153.12283 | 24 ft | 4 kts | 249° |
| 2026-04-25 14:12 | -27.38646 | 153.12305 | 24 ft | 4 kts | 212° |
| 2026-04-25 14:12 | -27.38637 | 153.12311 | 25 ft | 0 kts | 208° |
| 2026-04-25 14:17 | -27.38639 | 153.12310 | 22 ft | 1 kts | 208° |
| 2026-04-25 14:17 | -27.38654 | 153.12301 | 22 ft | 5 kts | 208° |
| 2026-04-25 14:18 | -27.38698 | 153.12275 | 21 ft | 10 kts | 207° |
| 2026-04-25 14:18 | -27.38766 | 153.12241 | 22 ft | 9 kts | 188° |
| 2026-04-25 14:18 | -27.38788 | 153.12294 | 21 ft | 10 kts | 64° |
| 2026-04-25 14:18 | -27.38728 | 153.12346 | 22 ft | 12 kts | 28° |
| 2026-04-25 14:19 | -27.38647 | 153.12391 | 23 ft | 14 kts | 26° |
| 2026-04-25 14:19 | -27.38559 | 153.12441 | 21 ft | 15 kts | 25° |
| 2026-04-25 14:19 | -27.38459 | 153.12497 | 21 ft | 17 kts | 27° |
| 2026-04-25 14:19 | -27.38353 | 153.12559 | 22 ft | 18 kts | 28° |
| 2026-04-25 14:20 | -27.38237 | 153.12626 | 22 ft | 19 kts | 27° |
| 2026-04-25 14:20 | -27.38196 | 153.12650 | 22 ft | 20 kts | 27° |
| 2026-04-25 14:20 | -27.38005 | 153.12765 | 21 ft | 16 kts | 42° |
| 2026-04-25 14:20 | -27.38014 | 153.12865 | 22 ft | 14 kts | 118° |
| 2026-04-25 14:21 | -27.38056 | 153.12956 | 21 ft | 9 kts | 117° |
| 2026-04-25 14:21 | -27.38062 | 153.12969 | 21 ft | 0 kts | 117° |
| 2026-04-25 14:23 | -27.38064 | 153.12973 | 21 ft | 2 kts | 117° |
| 2026-04-25 14:23 | -27.38074 | 153.12995 | 21 ft | 5 kts | 117° |
| 2026-04-25 14:23 | -27.38095 | 153.13036 | 21 ft | 8 kts | 128° |
| 2026-04-25 14:23 | -27.38186 | 153.13021 | 23 ft | 27 kts | 207° |
| 2026-04-25 14:24 | -27.38562 | 153.12805 | 23 ft | 93 kts | 207° |
| 2026-04-25 14:24 | -27.39303 | 153.12381 | 20 ft | 144 kts | 207° |
| 2026-04-25 14:24 | -27.40272 | 153.11818 | 335 ft | 158 kts | 207° |
| 2026-04-25 14:24 | -27.41240 | 153.11263 | 963 ft | 158 kts | 206° |
| 2026-04-25 14:25 | -27.42245 | 153.10770 | 1541 ft | 157 kts | 183° |
| 2026-04-25 14:25 | -27.43314 | 153.10991 | 1837 ft | 166 kts | 149° |
| 2026-04-25 14:25 | -27.44364 | 153.11681 | 2105 ft | 184 kts | 148° |
| 2026-04-25 14:25 | -27.44734 | 153.11917 | 2180 ft | 191 kts | 148° |
| 2026-04-25 14:26 | -27.46800 | 153.13200 | 3011 ft | 208 kts | 149° |
| 2026-04-25 14:26 | -27.48063 | 153.13975 | 3664 ft | 211 kts | 149° |
| 2026-04-25 14:26 | -27.49406 | 153.14667 | 4352 ft | 216 kts | 162° |
| 2026-04-25 14:26 | -27.50959 | 153.14691 | 4885 ft | 237 kts | 185° |
| 2026-04-25 14:27 | -27.52657 | 153.14294 | 5303 ft | 257 kts | 187° |
| 2026-04-25 14:27 | -27.54411 | 153.13852 | 5996 ft | 264 kts | 187° |
| 2026-04-25 14:27 | -27.56208 | 153.13313 | 6778 ft | 272 kts | 194° |
| 2026-04-25 14:27 | -27.58004 | 153.12579 | 7488 ft | 277 kts | 194° |
| 2026-04-25 14:28 | -27.59217 | 153.12092 | 7962 ft | 280 kts | 194° |
| 2026-04-25 14:28 | -27.61071 | 153.11355 | 8696 ft | 284 kts | 194° |
| 2026-04-25 14:28 | -27.62959 | 153.10641 | 9431 ft | 287 kts | 193° |
| 2026-04-25 14:28 | -27.65520 | 153.09774 | 10349 ft | 293 kts | 192° |
| 2026-04-25 14:29 | -27.66849 | 153.09343 | 10523 ft | 307 kts | 192° |
| 2026-04-25 14:29 | -27.68988 | 153.08657 | 10657 ft | 330 kts | 192° |
| 2026-04-25 14:29 | -27.71256 | 153.07926 | 10957 ft | 344 kts | 192° |
| 2026-04-25 14:29 | -27.73587 | 153.07160 | 11547 ft | 349 kts | 193° |
| 2026-04-25 14:30 | -27.75903 | 153.06387 | 12177 ft | 352 kts | 193° |
| 2026-04-25 14:30 | -27.80649 | 153.04748 | 13453 ft | 360 kts | 198° |
| 2026-04-25 14:30 | -27.82921 | 153.03482 | 14079 ft | 366 kts | 210° |
| 2026-04-25 14:31 | -27.85009 | 153.01847 | 14640 ft | 370 kts | 213° |
| 2026-04-25 14:31 | -27.87122 | 153.00154 | 15218 ft | 371 kts | 213° |
| 2026-04-25 14:31 | -27.89216 | 152.98477 | 15780 ft | 373 kts | 213° |
| 2026-04-25 14:31 | -27.91347 | 152.96774 | 16351 ft | 375 kts | 213° |
| 2026-04-25 14:32 | -27.93491 | 152.95062 | 16918 ft | 377 kts | 213° |
| 2026-04-25 14:32 | -27.95649 | 152.93338 | 17495 ft | 379 kts | 213° |
| 2026-04-25 14:32 | -27.97785 | 152.91628 | 18070 ft | 381 kts | 213° |
| 2026-04-25 14:32 | -27.99964 | 152.89883 | 18646 ft | 384 kts | 213° |
| 2026-04-25 14:33 | -28.02157 | 152.88126 | 19167 ft | 386 kts | 214° |
| 2026-04-25 14:33 | -28.04360 | 152.86362 | 19691 ft | 388 kts | 214° |
| 2026-04-25 14:33 | -28.06545 | 152.84612 | 20221 ft | 391 kts | 214° |
| 2026-04-25 14:33 | -28.08775 | 152.82826 | 20751 ft | 393 kts | 213° |
| 2026-04-25 14:34 | -28.11015 | 152.81028 | 21276 ft | 395 kts | 213° |
| 2026-04-25 14:34 | -28.13272 | 152.79216 | 21789 ft | 397 kts | 213° |
| 2026-04-25 14:34 | -28.15532 | 152.77400 | 22269 ft | 399 kts | 213° |
| 2026-04-25 14:34 | -28.17779 | 152.75594 | 22734 ft | 402 kts | 213° |
| 2026-04-25 14:35 | -28.20067 | 152.73755 | 23197 ft | 404 kts | 212° |
| 2026-04-25 14:35 | -28.22380 | 152.71894 | 23652 ft | 406 kts | 212° |
| 2026-04-25 14:35 | -28.24672 | 152.70047 | 24052 ft | 409 kts | 212° |
| 2026-04-25 14:35 | -28.26999 | 152.68170 | 24428 ft | 410 kts | 212° |
| 2026-04-25 14:36 | -28.29337 | 152.66286 | 24814 ft | 411 kts | 212° |
| 2026-04-25 14:36 | -28.31652 | 152.64421 | 25202 ft | 412 kts | 212° |
| 2026-04-25 14:36 | -28.34003 | 152.62527 | 25584 ft | 413 kts | 212° |
| 2026-04-25 14:36 | -28.36354 | 152.60632 | 25957 ft | 414 kts | 212° |
| 2026-04-25 14:37 | -28.38680 | 152.58757 | 26311 ft | 415 kts | 212° |
| 2026-04-25 14:37 | -28.41041 | 152.56850 | 26673 ft | 416 kts | 212° |
| 2026-04-25 14:37 | -28.43411 | 152.54932 | 27031 ft | 417 kts | 212° |
| 2026-04-25 14:37 | -28.45791 | 152.53005 | 27397 ft | 418 kts | 212° |
| 2026-04-25 14:38 | -28.48139 | 152.51103 | 27747 ft | 419 kts | 212° |
| 2026-04-25 14:38 | -28.50524 | 152.49173 | 28139 ft | 419 kts | 212° |
| 2026-04-25 14:38 | -28.52902 | 152.47244 | 28494 ft | 420 kts | 212° |
| 2026-04-25 14:38 | -28.55285 | 152.45308 | 28936 ft | 419 kts | 212° |
| 2026-04-25 14:39 | -28.57623 | 152.43410 | 29438 ft | 416 kts | 211° |
| 2026-04-25 14:39 | -28.59983 | 152.41493 | 29949 ft | 414 kts | 211° |
| 2026-04-25 14:39 | -28.62321 | 152.39593 | 30469 ft | 411 kts | 211° |
| 2026-04-25 14:39 | -28.64649 | 152.37702 | 30896 ft | 409 kts | 212° |
| 2026-04-25 14:40 | -28.66937 | 152.35846 | 31305 ft | 407 kts | 212° |
| 2026-04-25 14:40 | -28.69247 | 152.33971 | 31702 ft | 406 kts | 212° |
| 2026-04-25 14:40 | -28.71540 | 152.32109 | 32090 ft | 404 kts | 212° |
| 2026-04-25 14:40 | -28.73831 | 152.30243 | 32479 ft | 403 kts | 212° |
| 2026-04-25 14:41 | -28.76088 | 152.28404 | 32862 ft | 402 kts | 213° |
| 2026-04-25 14:41 | -28.78362 | 152.26547 | 33268 ft | 401 kts | 212° |
| 2026-04-25 14:41 | -28.80628 | 152.24695 | 33670 ft | 399 kts | 212° |
| 2026-04-25 14:41 | -28.82890 | 152.22845 | 34076 ft | 398 kts | 213° |
| 2026-04-25 14:42 | -28.85115 | 152.21027 | 34432 ft | 397 kts | 213° |
| 2026-04-25 14:42 | -28.86631 | 152.19789 | 34644 ft | 396 kts | 213° |
| 2026-04-25 14:42 | -28.89595 | 152.17366 | 35053 ft | 394 kts | 213° |
| 2026-04-25 14:42 | -28.91823 | 152.15545 | 35358 ft | 393 kts | 213° |
| 2026-04-25 14:43 | -28.94048 | 152.13727 | 35631 ft | 392 kts | 213° |
| 2026-04-25 14:43 | -28.96242 | 152.11932 | 35906 ft | 391 kts | 213° |
| 2026-04-25 14:43 | -28.98458 | 152.10119 | 36193 ft | 390 kts | 213° |
| 2026-04-25 14:43 | -29.00675 | 152.08306 | 36307 ft | 392 kts | 213° |
| 2026-04-25 14:44 | -29.05175 | 152.04621 | 36332 ft | 403 kts | 213° |
| 2026-04-25 14:44 | -29.09731 | 152.00885 | 36331 ft | 406 kts | 213° |
| 2026-04-25 14:45 | -29.14335 | 151.97096 | 36331 ft | 406 kts | 213° |
| 2026-04-25 14:45 | -29.18908 | 151.93336 | 36330 ft | 406 kts | 213° |
| 2026-04-25 14:46 | -29.23517 | 151.89530 | 36335 ft | 408 kts | 213° |
| 2026-04-25 14:46 | -29.28103 | 151.85741 | 36343 ft | 408 kts | 213° |
| 2026-04-25 14:47 | -29.31940 | 151.82567 | 36346 ft | 408 kts | 213° |
| 2026-04-25 14:47 | -29.37314 | 151.78124 | 36353 ft | 408 kts | 213° |
| 2026-04-25 14:48 | -29.41912 | 151.74318 | 36352 ft | 409 kts | 213° |
| 2026-04-25 14:48 | -29.46542 | 151.70490 | 36356 ft | 409 kts | 213° |
| 2026-04-25 14:49 | -29.51155 | 151.66676 | 36364 ft | 410 kts | 211° |
| 2026-04-25 14:49 | -29.56058 | 151.63410 | 36364 ft | 409 kts | 207° |
| 2026-04-25 14:50 | -29.61029 | 151.60187 | 36354 ft | 409 kts | 208° |
| 2026-04-25 14:50 | -29.65968 | 151.56973 | 36357 ft | 410 kts | 208° |
| 2026-04-25 14:51 | -29.70922 | 151.53746 | 36352 ft | 410 kts | 208° |
| 2026-04-25 14:51 | -29.75906 | 151.50507 | 36358 ft | 411 kts | 208° |
| 2026-04-25 14:52 | -29.80871 | 151.47277 | 36369 ft | 411 kts | 208° |
| 2026-04-25 14:52 | -29.85022 | 151.44571 | 36368 ft | 411 kts | 208° |
| 2026-04-25 14:53 | -29.90851 | 151.40768 | 36373 ft | 412 kts | 208° |
| 2026-04-25 14:53 | -29.95819 | 151.37515 | 36375 ft | 412 kts | 208° |
| 2026-04-25 14:54 | -30.00818 | 151.34234 | 36375 ft | 413 kts | 208° |
| 2026-04-25 14:54 | -30.05795 | 151.30980 | 36360 ft | 413 kts | 208° |
| 2026-04-25 14:55 | -30.10812 | 151.27697 | 36362 ft | 413 kts | 208° |
| 2026-04-25 14:55 | -30.15796 | 151.24418 | 36373 ft | 414 kts | 208° |
| 2026-04-25 14:56 | -30.20810 | 151.21116 | 36370 ft | 414 kts | 208° |
| 2026-04-25 14:56 | -30.25794 | 151.17835 | 36374 ft | 414 kts | 208° |
| 2026-04-25 14:57 | -30.30820 | 151.14527 | 36379 ft | 414 kts | 208° |
| 2026-04-25 14:57 | -30.35805 | 151.11238 | 36376 ft | 415 kts | 208° |
| 2026-04-25 14:58 | -30.40825 | 151.07917 | 36375 ft | 415 kts | 208° |
| 2026-04-25 14:58 | -30.45853 | 151.04585 | 36378 ft | 415 kts | 208° |
| 2026-04-25 14:59 | -30.50849 | 151.01284 | 36364 ft | 415 kts | 208° |
| 2026-04-25 14:59 | -30.55897 | 150.97941 | 36357 ft | 416 kts | 209° |
| 2026-04-25 15:00 | -30.60899 | 150.94620 | 36362 ft | 417 kts | 209° |
| 2026-04-25 15:00 | -30.65946 | 150.91262 | 36369 ft | 417 kts | 209° |
| 2026-04-25 15:01 | -30.70958 | 150.87919 | 36373 ft | 417 kts | 209° |
| 2026-04-25 15:01 | -30.76014 | 150.84558 | 36360 ft | 418 kts | 208° |
| 2026-04-25 15:02 | -30.81072 | 150.81189 | 36360 ft | 418 kts | 208° |
| 2026-04-25 15:02 | -30.86109 | 150.77819 | 36361 ft | 419 kts | 209° |
| 2026-04-25 15:03 | -30.91149 | 150.74441 | 36341 ft | 419 kts | 209° |
| 2026-04-25 15:03 | -30.96217 | 150.71047 | 36371 ft | 419 kts | 209° |
| 2026-04-25 15:04 | -31.01262 | 150.67664 | 36376 ft | 420 kts | 209° |
| 2026-04-25 15:04 | -31.06294 | 150.64190 | 36376 ft | 421 kts | 214° |
| 2026-04-25 15:05 | -31.10769 | 150.59741 | 36371 ft | 422 kts | 220° |
| 2026-04-25 15:06 | -31.17337 | 150.52909 | 36359 ft | 423 kts | 220° |
| 2026-04-25 15:06 | -31.21706 | 150.48355 | 36348 ft | 423 kts | 220° |
| 2026-04-25 15:07 | -31.26106 | 150.43762 | 36340 ft | 423 kts | 220° |
| 2026-04-25 15:07 | -31.30510 | 150.39159 | 36345 ft | 423 kts | 220° |
| 2026-04-25 15:08 | -31.34881 | 150.34587 | 36350 ft | 424 kts | 220° |
| 2026-04-25 15:08 | -31.39293 | 150.29972 | 36357 ft | 424 kts | 220° |
| 2026-04-25 15:09 | -31.43665 | 150.25386 | 36361 ft | 424 kts | 220° |
| 2026-04-25 15:09 | -31.50261 | 150.18456 | 36362 ft | 425 kts | 220° |
| 2026-04-25 15:10 | -31.54664 | 150.13825 | 36359 ft | 425 kts | 221° |
| 2026-04-25 15:11 | -31.61250 | 150.06874 | 36373 ft | 425 kts | 221° |
| 2026-04-25 15:11 | -31.65649 | 150.02223 | 36369 ft | 425 kts | 221° |
| 2026-04-25 15:12 | -31.72233 | 149.95279 | 36356 ft | 425 kts | 221° |
| 2026-04-25 15:12 | -31.75148 | 149.92202 | 36365 ft | 425 kts | 221° |
| 2026-04-25 15:13 | -31.83217 | 149.83624 | 36371 ft | 425 kts | 221° |
| 2026-04-25 15:14 | -31.87493 | 149.78844 | 36370 ft | 425 kts | 224° |
| 2026-04-25 15:14 | -31.91575 | 149.73841 | 36377 ft | 425 kts | 225° |
| 2026-04-25 15:15 | -31.95653 | 149.68767 | 36376 ft | 425 kts | 225° |
| 2026-04-25 15:15 | -31.99736 | 149.63779 | 36366 ft | 425 kts | 225° |
| 2026-04-25 15:16 | -32.03181 | 149.59613 | 36355 ft | 425 kts | 225° |
| 2026-04-25 15:16 | -32.09381 | 149.52113 | 36368 ft | 424 kts | 225° |
| 2026-04-25 15:17 | -32.15534 | 149.44629 | 36367 ft | 424 kts | 225° |
| 2026-04-25 15:18 | -32.19617 | 149.39639 | 36365 ft | 424 kts | 225° |
| 2026-04-25 15:18 | -32.25764 | 149.32133 | 36366 ft | 424 kts | 225° |
| 2026-04-25 15:19 | -32.29184 | 149.27957 | 36361 ft | 424 kts | 225° |
| 2026-04-25 15:19 | -32.33972 | 149.22098 | 36352 ft | 425 kts | 225° |
| 2026-04-25 15:20 | -32.38089 | 149.17052 | 36359 ft | 425 kts | 225° |
| 2026-04-25 15:20 | -32.42182 | 149.12032 | 36365 ft | 425 kts | 225° |
| 2026-04-25 15:21 | -32.46292 | 149.06972 | 36363 ft | 426 kts | 225° |
| 2026-04-25 15:21 | -32.50376 | 149.01929 | 36346 ft | 426 kts | 225° |
| 2026-04-25 15:22 | -32.54497 | 148.96848 | 36358 ft | 426 kts | 225° |
| 2026-04-25 15:22 | -32.58582 | 148.91808 | 36356 ft | 426 kts | 225° |
| 2026-04-25 15:23 | -32.62687 | 148.86729 | 36362 ft | 426 kts | 226° |
| 2026-04-25 15:23 | -32.66771 | 148.81669 | 36368 ft | 426 kts | 226° |
| 2026-04-25 15:24 | -32.70891 | 148.76558 | 36363 ft | 426 kts | 226° |
| 2026-04-25 15:24 | -32.74280 | 148.72349 | 36362 ft | 426 kts | 226° |
| 2026-04-25 15:25 | -32.79056 | 148.66411 | 36360 ft | 426 kts | 226° |
| 2026-04-25 15:25 | -32.83167 | 148.61293 | 36362 ft | 426 kts | 226° |
| 2026-04-25 15:26 | -32.87246 | 148.56195 | 36361 ft | 427 kts | 226° |
| 2026-04-25 15:26 | -32.91350 | 148.51068 | 36362 ft | 427 kts | 226° |
| 2026-04-25 15:27 | -32.95425 | 148.45974 | 36354 ft | 427 kts | 226° |
| 2026-04-25 15:28 | -33.01575 | 148.38274 | 36359 ft | 427 kts | 226° |
| 2026-04-25 15:28 | -33.05646 | 148.33151 | 36351 ft | 426 kts | 226° |
| 2026-04-25 15:29 | -33.09710 | 148.28030 | 36357 ft | 426 kts | 226° |
| 2026-04-25 15:29 | -33.13911 | 148.23019 | 36347 ft | 427 kts | 219° |
| 2026-04-25 15:30 | -33.18625 | 148.18676 | 36344 ft | 427 kts | 218° |
| 2026-04-25 15:30 | -33.23309 | 148.14351 | 36347 ft | 427 kts | 218° |
| 2026-04-25 15:31 | -33.27995 | 148.10019 | 36347 ft | 427 kts | 218° |
| 2026-04-25 15:31 | -33.32713 | 148.05667 | 36355 ft | 427 kts | 218° |
| 2026-04-25 15:32 | -33.37401 | 148.01332 | 36348 ft | 428 kts | 218° |
| 2026-04-25 15:32 | -33.42120 | 147.96946 | 36348 ft | 428 kts | 218° |
| 2026-04-25 15:33 | -33.49159 | 147.90390 | 36344 ft | 428 kts | 219° |
| 2026-04-25 15:33 | -33.53845 | 147.86019 | 36349 ft | 429 kts | 219° |
| 2026-04-25 15:34 | -33.58578 | 147.81610 | 36346 ft | 429 kts | 219° |
| 2026-04-25 15:34 | -33.62507 | 147.77951 | 36347 ft | 429 kts | 219° |
| 2026-04-25 15:35 | -33.70362 | 147.70606 | 36345 ft | 430 kts | 219° |
| 2026-04-25 15:36 | -33.77418 | 147.63994 | 36346 ft | 430 kts | 219° |
| 2026-04-25 15:36 | -33.82144 | 147.59555 | 36344 ft | 430 kts | 219° |
| 2026-04-25 15:37 | -33.86840 | 147.55138 | 36349 ft | 430 kts | 219° |
| 2026-04-25 15:37 | -33.91567 | 147.50687 | 36347 ft | 430 kts | 219° |
| 2026-04-25 15:38 | -33.96255 | 147.46264 | 36343 ft | 430 kts | 219° |
| 2026-04-25 15:38 | -34.00985 | 147.41798 | 36347 ft | 430 kts | 219° |
| 2026-04-25 15:39 | -34.05688 | 147.37358 | 36340 ft | 431 kts | 219° |
| 2026-04-25 15:39 | -34.10414 | 147.32878 | 36341 ft | 431 kts | 219° |
| 2026-04-25 15:40 | -34.13535 | 147.29913 | 36343 ft | 430 kts | 219° |
| 2026-04-25 15:40 | -34.19825 | 147.23947 | 36349 ft | 431 kts | 219° |
| 2026-04-25 15:41 | -34.24515 | 147.19480 | 36342 ft | 431 kts | 220° |
| 2026-04-25 15:41 | -34.29227 | 147.14985 | 36335 ft | 431 kts | 220° |
| 2026-04-25 15:42 | -34.33925 | 147.10501 | 36342 ft | 431 kts | 220° |
| 2026-04-25 15:42 | -34.38654 | 147.05989 | 36342 ft | 431 kts | 220° |
| 2026-04-25 15:43 | -34.43353 | 147.01497 | 36337 ft | 431 kts | 220° |
| 2026-04-25 15:43 | -34.48038 | 146.97002 | 36335 ft | 431 kts | 220° |
| 2026-04-25 15:44 | -34.52724 | 146.92498 | 36333 ft | 431 kts | 220° |
| 2026-04-25 15:44 | -34.57440 | 146.87964 | 36325 ft | 431 kts | 220° |
| 2026-04-25 15:45 | -34.62132 | 146.83451 | 36318 ft | 432 kts | 220° |
| 2026-04-25 15:45 | -34.65277 | 146.80420 | 36331 ft | 431 kts | 220° |
| 2026-04-25 15:46 | -34.71533 | 146.74392 | 36329 ft | 431 kts | 220° |
| 2026-04-25 15:46 | -34.76198 | 146.69882 | 36320 ft | 431 kts | 220° |
| 2026-04-25 15:47 | -34.80895 | 146.65323 | 36319 ft | 431 kts | 220° |
| 2026-04-25 15:47 | -34.85558 | 146.60785 | 36323 ft | 431 kts | 220° |
| 2026-04-25 15:48 | -34.90260 | 146.56218 | 36320 ft | 432 kts | 220° |
| 2026-04-25 15:48 | -34.94976 | 146.51635 | 36309 ft | 432 kts | 220° |
| 2026-04-25 15:49 | -34.99657 | 146.47077 | 36311 ft | 433 kts | 220° |
| 2026-04-25 15:49 | -35.04375 | 146.42481 | 36307 ft | 433 kts | 220° |
| 2026-04-25 15:50 | -35.09090 | 146.37870 | 36303 ft | 434 kts | 220° |
| 2026-04-25 15:50 | -35.13777 | 146.33278 | 36305 ft | 434 kts | 220° |
| 2026-04-25 15:51 | -35.16944 | 146.30174 | 36315 ft | 434 kts | 221° |
| 2026-04-25 15:51 | -35.23193 | 146.24044 | 36314 ft | 434 kts | 221° |
| 2026-04-25 15:52 | -35.27910 | 146.19412 | 36311 ft | 433 kts | 221° |
| 2026-04-25 15:52 | -35.32617 | 146.14769 | 36321 ft | 433 kts | 221° |
| 2026-04-25 15:53 | -35.37289 | 146.10155 | 36313 ft | 434 kts | 221° |
| 2026-04-25 15:53 | -35.41996 | 146.05503 | 36309 ft | 434 kts | 221° |
| 2026-04-25 15:54 | -35.46675 | 146.00877 | 36317 ft | 433 kts | 221° |
| 2026-04-25 15:54 | -35.51368 | 145.96237 | 36315 ft | 431 kts | 221° |
| 2026-04-25 15:55 | -35.56043 | 145.91599 | 36315 ft | 431 kts | 221° |
| 2026-04-25 15:55 | -35.60671 | 145.86995 | 36312 ft | 430 kts | 221° |
| 2026-04-25 15:56 | -35.65335 | 145.82358 | 36324 ft | 430 kts | 221° |
| 2026-04-25 15:56 | -35.69963 | 145.77733 | 36311 ft | 430 kts | 222° |
| 2026-04-25 15:57 | -35.74625 | 145.73082 | 36314 ft | 430 kts | 222° |
| 2026-04-25 15:57 | -35.79252 | 145.68454 | 36317 ft | 429 kts | 222° |
| 2026-04-25 15:58 | -35.83875 | 145.63823 | 36317 ft | 429 kts | 222° |
| 2026-04-25 15:58 | -35.88516 | 145.59168 | 36309 ft | 429 kts | 222° |
| 2026-04-25 15:59 | -35.93138 | 145.54528 | 36305 ft | 429 kts | 222° |
| 2026-04-25 15:59 | -35.97786 | 145.49851 | 36313 ft | 430 kts | 222° |
| 2026-04-25 16:00 | -36.00860 | 145.46751 | 36315 ft | 430 kts | 222° |
| 2026-04-25 16:00 | -36.07049 | 145.40509 | 36306 ft | 430 kts | 222° |
| 2026-04-25 16:01 | -36.11653 | 145.35843 | 36317 ft | 430 kts | 222° |
| 2026-04-25 16:01 | -36.16302 | 145.31126 | 36299 ft | 430 kts | 222° |
| 2026-04-25 16:02 | -36.20915 | 145.26454 | 36288 ft | 431 kts | 222° |
| 2026-04-25 16:02 | -36.24785 | 145.22527 | 36290 ft | 431 kts | 223° |
| 2026-04-25 16:03 | -36.29433 | 145.17786 | 36300 ft | 432 kts | 223° |
| 2026-04-25 16:03 | -36.34818 | 145.12294 | 36291 ft | 432 kts | 223° |
| 2026-04-25 16:04 | -36.38700 | 145.08347 | 36288 ft | 433 kts | 223° |
| 2026-04-25 16:04 | -36.43363 | 145.03584 | 36292 ft | 433 kts | 223° |
| 2026-04-25 16:05 | -36.48024 | 144.98809 | 36287 ft | 434 kts | 223° |
| 2026-04-25 16:05 | -36.52666 | 144.94047 | 36184 ft | 434 kts | 223° |
| 2026-04-25 16:06 | -36.54972 | 144.91680 | 35814 ft | 433 kts | 223° |
| 2026-04-25 16:06 | -36.57303 | 144.89287 | 35114 ft | 435 kts | 223° |
| 2026-04-25 16:06 | -36.59655 | 144.86867 | 34342 ft | 439 kts | 224° |
| 2026-04-25 16:06 | -36.62026 | 144.84423 | 33441 ft | 443 kts | 223° |
| 2026-04-25 16:07 | -36.64364 | 144.82011 | 32831 ft | 440 kts | 223° |
| 2026-04-25 16:07 | -36.65957 | 144.80370 | 32513 ft | 436 kts | 223° |
| 2026-04-25 16:07 | -36.69050 | 144.77186 | 31776 ft | 432 kts | 223° |
| 2026-04-25 16:07 | -36.71368 | 144.74803 | 31223 ft | 430 kts | 223° |
| 2026-04-25 16:08 | -36.73642 | 144.72461 | 30684 ft | 427 kts | 223° |
| 2026-04-25 16:08 | -36.75933 | 144.70094 | 30102 ft | 425 kts | 223° |
| 2026-04-25 16:08 | -36.78253 | 144.67812 | 29543 ft | 424 kts | 217° |
| 2026-04-25 16:08 | -36.80836 | 144.66025 | 29000 ft | 425 kts | 206° |
| 2026-04-25 16:09 | -36.83649 | 144.64867 | 28452 ft | 426 kts | 195° |
| 2026-04-25 16:09 | -36.86557 | 144.64338 | 27919 ft | 426 kts | 188° |
| 2026-04-25 16:09 | -36.89506 | 144.63942 | 27385 ft | 424 kts | 189° |
| 2026-04-25 16:09 | -36.92458 | 144.63538 | 26844 ft | 423 kts | 189° |
| 2026-04-25 16:10 | -36.95351 | 144.63136 | 26326 ft | 422 kts | 189° |
| 2026-04-25 16:10 | -36.98272 | 144.62725 | 25815 ft | 422 kts | 189° |
| 2026-04-25 16:10 | -37.01199 | 144.62308 | 25311 ft | 421 kts | 189° |
| 2026-04-25 16:10 | -37.04113 | 144.61890 | 24816 ft | 421 kts | 188° |
| 2026-04-25 16:11 | -37.07026 | 144.61475 | 24329 ft | 421 kts | 188° |
| 2026-04-25 16:11 | -37.09905 | 144.61070 | 23845 ft | 421 kts | 188° |
| 2026-04-25 16:11 | -37.12820 | 144.60662 | 23299 ft | 420 kts | 188° |
| 2026-04-25 16:11 | -37.15724 | 144.60259 | 22820 ft | 418 kts | 188° |
| 2026-04-25 16:12 | -37.18622 | 144.59855 | 22322 ft | 417 kts | 188° |
| 2026-04-25 16:12 | -37.21503 | 144.59451 | 21834 ft | 415 kts | 188° |
| 2026-04-25 16:12 | -37.24377 | 144.59043 | 21333 ft | 414 kts | 188° |
| 2026-04-25 16:12 | -37.26272 | 144.58771 | 20995 ft | 413 kts | 188° |
| 2026-04-25 16:13 | -37.30070 | 144.58232 | 20311 ft | 412 kts | 188° |
| 2026-04-25 16:13 | -37.32934 | 144.57831 | 19785 ft | 412 kts | 188° |
| 2026-04-25 16:13 | -37.35746 | 144.57440 | 19255 ft | 411 kts | 188° |
| 2026-04-25 16:13 | -37.38599 | 144.57043 | 18720 ft | 412 kts | 188° |
| 2026-04-25 16:14 | -37.41455 | 144.56642 | 18134 ft | 411 kts | 188° |
| 2026-04-25 16:14 | -37.44285 | 144.56241 | 17619 ft | 406 kts | 188° |
| 2026-04-25 16:14 | -37.47022 | 144.55852 | 17049 ft | 392 kts | 189° |
| 2026-04-25 16:14 | -37.49696 | 144.55473 | 16539 ft | 381 kts | 189° |
| 2026-04-25 16:15 | -37.52306 | 144.55103 | 16029 ft | 373 kts | 189° |
| 2026-04-25 16:15 | -37.54888 | 144.54737 | 15541 ft | 372 kts | 189° |
| 2026-04-25 16:15 | -37.57436 | 144.54370 | 15046 ft | 370 kts | 189° |
| 2026-04-25 16:15 | -37.59972 | 144.54004 | 14554 ft | 361 kts | 189° |
| 2026-04-25 16:16 | -37.62450 | 144.53648 | 14068 ft | 352 kts | 189° |
| 2026-04-25 16:16 | -37.64855 | 144.53305 | 13666 ft | 340 kts | 190° |
| 2026-04-25 16:16 | -37.67151 | 144.52951 | 13227 ft | 331 kts | 191° |
| 2026-04-25 16:16 | -37.69408 | 144.52580 | 12811 ft | 322 kts | 191° |
| 2026-04-25 16:17 | -37.71599 | 144.52207 | 12402 ft | 313 kts | 191° |
| 2026-04-25 16:17 | -37.73742 | 144.51837 | 12000 ft | 308 kts | 191° |
| 2026-04-25 16:17 | -37.75874 | 144.51469 | 11603 ft | 308 kts | 191° |
| 2026-04-25 16:17 | -37.77975 | 144.51107 | 11217 ft | 309 kts | 190° |
| 2026-04-25 16:18 | -37.80107 | 144.50744 | 10821 ft | 309 kts | 190° |
| 2026-04-25 16:18 | -37.80828 | 144.50622 | 10695 ft | 309 kts | 190° |
| 2026-04-25 16:18 | -37.84346 | 144.50026 | 10066 ft | 306 kts | 190° |
| 2026-04-25 16:18 | -37.86440 | 144.49675 | 9632 ft | 299 kts | 190° |
| 2026-04-25 16:19 | -37.88515 | 144.49514 | 9219 ft | 296 kts | 180° |
| 2026-04-25 16:19 | -37.90579 | 144.49614 | 8810 ft | 297 kts | 180° |
| 2026-04-25 16:19 | -37.92618 | 144.49713 | 8411 ft | 298 kts | 180° |
| 2026-04-25 16:20 | -37.96750 | 144.49924 | 7736 ft | 294 kts | 173° |
| 2026-04-25 16:20 | -37.98674 | 144.50780 | 7403 ft | 296 kts | 149° |
| 2026-04-25 16:20 | -38.01892 | 144.53965 | 6788 ft | 293 kts | 142° |
| 2026-04-25 16:21 | -38.03462 | 144.55617 | 6466 ft | 291 kts | 142° |
| 2026-04-25 16:21 | -38.04991 | 144.57233 | 6133 ft | 286 kts | 142° |
| 2026-04-25 16:21 | -38.06497 | 144.58825 | 5812 ft | 274 kts | 142° |
| 2026-04-25 16:21 | -38.07944 | 144.60342 | 5513 ft | 263 kts | 145° |
| 2026-04-25 16:22 | -38.09517 | 144.61372 | 5214 ft | 247 kts | 166° |
| 2026-04-25 16:22 | -38.11137 | 144.61889 | 4924 ft | 239 kts | 171° |
| 2026-04-25 16:22 | -38.12768 | 144.62324 | 4649 ft | 238 kts | 172° |
| 2026-04-25 16:22 | -38.14382 | 144.62741 | 4396 ft | 235 kts | 172° |
| 2026-04-25 16:23 | -38.15960 | 144.63142 | 4148 ft | 232 kts | 175° |
| 2026-04-25 16:23 | -38.17514 | 144.63064 | 3972 ft | 216 kts | 202° |
| 2026-04-25 16:23 | -38.18781 | 144.62228 | 3861 ft | 197 kts | 227° |
| 2026-04-25 16:23 | -38.19608 | 144.60916 | 3710 ft | 186 kts | 250° |
| 2026-04-25 16:24 | -38.19962 | 144.59397 | 3542 ft | 178 kts | 270° |
| 2026-04-25 16:24 | -38.19989 | 144.57833 | 3412 ft | 176 kts | 275° |
| 2026-04-25 16:24 | -38.20002 | 144.56261 | 3261 ft | 177 kts | 275° |
| 2026-04-25 16:24 | -38.20017 | 144.54702 | 3124 ft | 178 kts | 275° |
| 2026-04-25 16:25 | -38.20034 | 144.53121 | 3050 ft | 178 kts | 275° |
| 2026-04-25 16:25 | -38.20032 | 144.52077 | 2918 ft | 177 kts | 282° |
| 2026-04-25 16:25 | -38.19561 | 144.50188 | 2700 ft | 160 kts | 306° |
| 2026-04-25 16:25 | -38.18944 | 144.49108 | 2534 ft | 149 kts | 311° |
| 2026-04-25 16:26 | -38.18346 | 144.48081 | 2351 ft | 140 kts | 311° |
| 2026-04-25 16:26 | -38.17774 | 144.47092 | 2221 ft | 136 kts | 311° |
| 2026-04-25 16:26 | -38.17214 | 144.46125 | 2148 ft | 135 kts | 311° |
| 2026-04-25 16:26 | -38.16606 | 144.45246 | 2112 ft | 133 kts | 326° |
| 2026-04-25 16:27 | -38.15743 | 144.44817 | 2100 ft | 136 kts | 351° |
| 2026-04-25 16:27 | -38.14806 | 144.44907 | 1918 ft | 136 kts | 2° |
| 2026-04-25 16:27 | -38.13867 | 144.45067 | 1722 ft | 135 kts | 4° |
| 2026-04-25 16:27 | -38.12936 | 144.45225 | 1528 ft | 136 kts | 2° |
| 2026-04-25 16:28 | -38.11995 | 144.45384 | 1356 ft | 135 kts | 4° |
| 2026-04-25 16:28 | -38.11079 | 144.45539 | 1176 ft | 134 kts | 5° |
| 2026-04-25 16:28 | -38.10142 | 144.45696 | 996 ft | 135 kts | 6° |
| 2026-04-25 16:28 | -38.09213 | 144.45851 | 813 ft | 134 kts | 6° |
| 2026-04-25 16:29 | -38.08305 | 144.46008 | 643 ft | 133 kts | 8° |
| 2026-04-25 16:29 | -38.07387 | 144.46165 | 430 ft | 132 kts | 8° |
| 2026-04-25 16:29 | -38.06481 | 144.46318 | 261 ft | 132 kts | 9° |
| 2026-04-25 16:29 | -38.05572 | 144.46465 | 102 ft | 131 kts | 8° |
| 2026-04-25 16:30 | -38.04716 | 144.46610 | 34 ft | 106 kts | 7° |
| 2026-04-25 16:30 | -38.04271 | 144.46681 | 32 ft | 35 kts | 7° |
| 2026-04-25 16:30 | -38.04038 | 144.46722 | 33 ft | 32 kts | 8° |
| 2026-04-25 16:30 | -38.03831 | 144.46759 | 33 ft | 29 kts | 8° |
| 2026-04-25 16:31 | -38.03641 | 144.46790 | 34 ft | 26 kts | 7° |
| 2026-04-25 16:31 | -38.03462 | 144.46821 | 35 ft | 26 kts | 8° |
| 2026-04-25 16:31 | -38.03297 | 144.46847 | 34 ft | 18 kts | 6° |
| 2026-04-25 16:31 | -38.03232 | 144.46917 | 33 ft | 13 kts | 94° |
| 2026-04-25 16:32 | -38.03243 | 144.47040 | 33 ft | 15 kts | 92° |
| 2026-04-25 16:32 | -38.03220 | 144.47176 | 33 ft | 17 kts | 66° |
| 2026-04-25 16:32 | -38.03140 | 144.47289 | 33 ft | 18 kts | 33° |
| 2026-04-25 16:32 | -38.03016 | 144.47335 | 32 ft | 20 kts | 10° |
| 2026-04-25 16:33 | -38.02888 | 144.47358 | 32 ft | 16 kts | 6° |
| 2026-04-25 16:33 | -38.02828 | 144.47363 | 32 ft | 6 kts | 355° |
| 2026-04-25 16:33 | -38.02809 | 144.47369 | 31 ft | 2 kts | 24° |
| 2026-04-25 16:33 | -38.02797 | 144.47380 | 30 ft | 2 kts | 44° |
| 2026-04-25 16:34 | -38.02784 | 144.47408 | 32 ft | 5 kts | 47° |
| 2026-04-25 16:34 | -38.02754 | 144.47419 | 32 ft | 2 kts | 8° |
| 2026-04-25 16:34 | -38.02740 | 144.47421 | 32 ft | 1 kts | 8° |
| 2026-04-25 16:34 | -38.02730 | 144.47423 | 32 ft | 0 kts | 8° |
| 2026-04-25 16:35 | -38.02729 | 144.47423 | 32 ft | 0 kts | 8° |